sensor_id;sensor_type;location;lat;lon;timestamp;P1;durP1;ratioP1;P2;durP2;ratioP2
71238;SDS011;61342;51.442;7.370;2023-06-22T00:02:10;6.00;;;4.65;;
71238;SDS011;61342;51.442;7.370;2023-06-22T00:03:14;6.30;;;4.53;;
71238;SDS011;61342;51.442;7.370;2023-06-22T00:04:24;5.88;;;4.57;;
71238;SDS011;61342;51.442;7.370;2023-06-22T00:05:35;6.78;;;5.22;;
71238;SDS011;61342;51.442;7.370;2023-06-22T00:06:37;7.47;;;4.80;;
71238;SDS011;61342;51.442;7.370;2023-06-22T00:07:38;6.70;;;5.10;;
71238;SDS011;61342;51.442;7.370;2023-06-22T00:08:39;8.63;;;5.30;;
71238;SDS011;61342;51.442;7.370;2023-06-22T00:09:40;5.63;;;4.95;;
71238;SDS011;61342;51.442;7.370;2023-06-22T00:10:59;6.78;;;5.07;;
71238;SDS011;61342;51.442;7.370;2023-06-22T00:13:41;8.73;;;5.28;;
71238;SDS011;61342;51.442;7.370;2023-06-22T00:14:44;7.47;;;5.63;;
71238;SDS011;61342;51.442;7.370;2023-06-22T00:15:51;8.93;;;5.60;;
71238;SDS011;61342;51.442;7.370;2023-06-22T00:17:02;8.57;;;5.22;;
71238;SDS011;61342;51.442;7.370;2023-06-22T00:18:06;7.50;;;5.18;;
71238;SDS011;61342;51.442;7.370;2023-06-22T00:19:08;9.43;;;5.22;;
71238;SDS011;61342;51.442;7.370;2023-06-22T00:20:11;8.75;;;5.15;;
71238;SDS011;61342;51.442;7.370;2023-06-22T00:21:27;6.03;;;5.15;;
71238;SDS011;61342;51.442;7.370;2023-06-22T00:22:29;6.53;;;5.40;;
71238;SDS011;61342;51.442;7.370;2023-06-22T00:23:30;7.65;;;5.05;;
71238;SDS011;61342;51.442;7.370;2023-06-22T00:24:57;6.43;;;5.55;;
71238;SDS011;61342;51.442;7.370;2023-06-22T00:25:58;7.32;;;4.70;;
71238;SDS011;61342;51.442;7.370;2023-06-22T00:26:59;7.57;;;5.22;;
71238;SDS011;61342;51.442;7.370;2023-06-22T00:28:01;7.40;;;5.10;;
71238;SDS011;61342;51.442;7.370;2023-06-22T00:29:08;5.95;;;5.03;;
71238;SDS011;61342;51.442;7.370;2023-06-22T00:30:24;7.65;;;5.07;;
71238;SDS011;61342;51.442;7.370;2023-06-22T00:31:43;5.07;;;4.68;;
71238;SDS011;61342;51.442;7.370;2023-06-22T00:32:58;6.93;;;4.85;;
71238;SDS011;61342;51.442;7.370;2023-06-22T00:33:59;6.15;;;4.72;;
71238;SDS011;61342;51.442;7.370;2023-06-22T00:35:04;5.55;;;4.72;;
71238;SDS011;61342;51.442;7.370;2023-06-22T00:36:05;5.63;;;5.00;;
71238;SDS011;61342;51.442;7.370;2023-06-22T00:37:16;7.32;;;4.85;;
71238;SDS011;61342;51.442;7.370;2023-06-22T00:38:29;5.30;;;4.72;;
71238;SDS011;61342;51.442;7.370;2023-06-22T00:39:36;8.18;;;5.28;;
71238;SDS011;61342;51.442;7.370;2023-06-22T00:40:40;8.05;;;5.30;;
71238;SDS011;61342;51.442;7.370;2023-06-22T00:41:44;6.63;;;5.03;;
71238;SDS011;61342;51.442;7.370;2023-06-22T00:42:45;8.05;;;5.35;;
71238;SDS011;61342;51.442;7.370;2023-06-22T00:43:46;6.43;;;5.15;;
71238;SDS011;61342;51.442;7.370;2023-06-22T00:45:05;8.02;;;5.00;;
71238;SDS011;61342;51.442;7.370;2023-06-22T00:46:07;6.00;;;5.13;;
71238;SDS011;61342;51.442;7.370;2023-06-22T00:47:28;8.15;;;5.15;;
71238;SDS011;61342;51.442;7.370;2023-06-22T00:48:29;9.10;;;5.18;;
71238;SDS011;61342;51.442;7.370;2023-06-22T00:49:32;7.03;;;4.63;;
71238;SDS011;61342;51.442;7.370;2023-06-22T00:50:39;6.38;;;4.57;;
71238;SDS011;61342;51.442;7.370;2023-06-22T00:51:41;6.53;;;4.72;;
71238;SDS011;61342;51.442;7.370;2023-06-22T00:52:45;5.68;;;4.88;;
71238;SDS011;61342;51.442;7.370;2023-06-22T00:55:30;6.45;;;4.85;;
71238;SDS011;61342;51.442;7.370;2023-06-22T00:56:37;5.63;;;4.95;;
71238;SDS011;61342;51.442;7.370;2023-06-22T00:59:19;6.25;;;4.75;;
71238;SDS011;61342;51.442;7.370;2023-06-22T01:01:50;5.60;;;4.90;;
71238;SDS011;61342;51.442;7.370;2023-06-22T01:03:04;5.55;;;4.88;;
71238;SDS011;61342;51.442;7.370;2023-06-22T01:04:11;5.45;;;4.95;;
71238;SDS011;61342;51.442;7.370;2023-06-22T01:05:28;6.65;;;5.32;;
71238;SDS011;61342;51.442;7.370;2023-06-22T01:06:32;8.32;;;4.75;;
71238;SDS011;61342;51.442;7.370;2023-06-22T01:09:49;9.73;;;5.55;;
71238;SDS011;61342;51.442;7.370;2023-06-22T01:10:55;5.97;;;5.05;;
71238;SDS011;61342;51.442;7.370;2023-06-22T01:12:17;9.07;;;5.05;;
71238;SDS011;61342;51.442;7.370;2023-06-22T01:13:41;9.02;;;5.22;;
71238;SDS011;61342;51.442;7.370;2023-06-22T01:15:23;5.68;;;5.10;;
71238;SDS011;61342;51.442;7.370;2023-06-22T01:16:34;5.70;;;5.20;;
71238;SDS011;61342;51.442;7.370;2023-06-22T01:17:44;6.82;;;5.32;;
71238;SDS011;61342;51.442;7.370;2023-06-22T01:20:42;6.15;;;5.40;;
71238;SDS011;61342;51.442;7.370;2023-06-22T01:21:44;6.35;;;5.18;;
71238;SDS011;61342;51.442;7.370;2023-06-22T01:23:07;6.00;;;5.20;;
71238;SDS011;61342;51.442;7.370;2023-06-22T01:25:43;7.07;;;5.50;;
71238;SDS011;61342;51.442;7.370;2023-06-22T01:28:00;6.22;;;5.60;;
71238;SDS011;61342;51.442;7.370;2023-06-22T01:29:25;6.30;;;5.28;;
71238;SDS011;61342;51.442;7.370;2023-06-22T01:30:45;7.13;;;5.78;;
71238;SDS011;61342;51.442;7.370;2023-06-22T01:33:43;6.05;;;5.25;;
71238;SDS011;61342;51.442;7.370;2023-06-22T01:34:52;6.20;;;5.32;;
71238;SDS011;61342;51.442;7.370;2023-06-22T01:36:32;5.40;;;4.88;;
71238;SDS011;61342;51.442;7.370;2023-06-22T01:37:35;7.38;;;5.55;;
71238;SDS011;61342;51.442;7.370;2023-06-22T01:40:40;8.93;;;5.50;;
71238;SDS011;61342;51.442;7.370;2023-06-22T01:41:55;5.88;;;5.30;;
71238;SDS011;61342;51.442;7.370;2023-06-22T01:42:57;8.32;;;5.80;;
71238;SDS011;61342;51.442;7.370;2023-06-22T01:43:59;9.15;;;5.40;;
71238;SDS011;61342;51.442;7.370;2023-06-22T01:45:01;8.05;;;5.82;;
71238;SDS011;61342;51.442;7.370;2023-06-22T01:46:03;7.10;;;5.15;;
71238;SDS011;61342;51.442;7.370;2023-06-22T01:47:06;6.85;;;5.07;;
71238;SDS011;61342;51.442;7.370;2023-06-22T01:48:08;7.65;;;5.22;;
71238;SDS011;61342;51.442;7.370;2023-06-22T01:49:09;6.30;;;5.55;;
71238;SDS011;61342;51.442;7.370;2023-06-22T01:50:13;7.78;;;5.72;;
71238;SDS011;61342;51.442;7.370;2023-06-22T01:51:45;6.82;;;5.43;;
71238;SDS011;61342;51.442;7.370;2023-06-22T01:52:59;7.90;;;4.85;;
71238;SDS011;61342;51.442;7.370;2023-06-22T01:54:03;9.02;;;5.85;;
71238;SDS011;61342;51.442;7.370;2023-06-22T01:55:06;6.93;;;4.82;;
71238;SDS011;61342;51.442;7.370;2023-06-22T01:56:08;6.07;;;4.93;;
71238;SDS011;61342;51.442;7.370;2023-06-22T01:57:12;7.57;;;5.53;;
71238;SDS011;61342;51.442;7.370;2023-06-22T01:58:14;6.68;;;5.68;;
71238;SDS011;61342;51.442;7.370;2023-06-22T01:59:41;6.57;;;5.57;;
71238;SDS011;61342;51.442;7.370;2023-06-22T02:01:11;6.25;;;5.65;;
71238;SDS011;61342;51.442;7.370;2023-06-22T02:02:25;7.63;;;5.32;;
71238;SDS011;61342;51.442;7.370;2023-06-22T02:03:40;6.95;;;5.30;;
71238;SDS011;61342;51.442;7.370;2023-06-22T02:04:57;11.73;;;5.97;;
71238;SDS011;61342;51.442;7.370;2023-06-22T02:06:07;7.10;;;5.97;;
71238;SDS011;61342;51.442;7.370;2023-06-22T02:07:15;7.45;;;5.68;;
71238;SDS011;61342;51.442;7.370;2023-06-22T02:08:22;6.97;;;5.85;;
71238;SDS011;61342;51.442;7.370;2023-06-22T02:09:32;7.25;;;5.80;;
71238;SDS011;61342;51.442;7.370;2023-06-22T02:10:38;6.43;;;5.80;;
71238;SDS011;61342;51.442;7.370;2023-06-22T02:13:33;7.88;;;5.55;;
71238;SDS011;61342;51.442;7.370;2023-06-22T02:14:46;8.48;;;6.28;;
71238;SDS011;61342;51.442;7.370;2023-06-22T02:16:01;9.63;;;6.82;;
71238;SDS011;61342;51.442;7.370;2023-06-22T02:17:12;7.15;;;6.22;;
71238;SDS011;61342;51.442;7.370;2023-06-22T02:18:17;7.10;;;6.28;;
71238;SDS011;61342;51.442;7.370;2023-06-22T02:19:22;8.05;;;6.32;;
71238;SDS011;61342;51.442;7.370;2023-06-22T02:20:27;13.88;;;5.88;;
71238;SDS011;61342;51.442;7.370;2023-06-22T02:21:32;7.88;;;6.38;;
71238;SDS011;61342;51.442;7.370;2023-06-22T02:22:34;8.95;;;6.70;;
71238;SDS011;61342;51.442;7.370;2023-06-22T02:23:37;9.20;;;6.82;;
71238;SDS011;61342;51.442;7.370;2023-06-22T02:24:38;8.20;;;6.55;;
71238;SDS011;61342;51.442;7.370;2023-06-22T02:25:41;8.45;;;6.13;;
71238;SDS011;61342;51.442;7.370;2023-06-22T02:28:07;8.30;;;5.93;;
71238;SDS011;61342;51.442;7.370;2023-06-22T02:29:08;11.00;;;6.18;;
71238;SDS011;61342;51.442;7.370;2023-06-22T02:30:09;7.55;;;6.53;;
71238;SDS011;61342;51.442;7.370;2023-06-22T02:31:15;9.70;;;6.22;;
71238;SDS011;61342;51.442;7.370;2023-06-22T02:32:25;9.60;;;6.03;;
71238;SDS011;61342;51.442;7.370;2023-06-22T02:33:35;8.95;;;6.18;;
71238;SDS011;61342;51.442;7.370;2023-06-22T02:34:43;7.90;;;6.03;;
71238;SDS011;61342;51.442;7.370;2023-06-22T02:35:47;7.95;;;5.80;;
71238;SDS011;61342;51.442;7.370;2023-06-22T02:36:49;8.05;;;6.10;;
71238;SDS011;61342;51.442;7.370;2023-06-22T02:37:52;6.75;;;6.05;;
71238;SDS011;61342;51.442;7.370;2023-06-22T02:38:56;8.00;;;5.47;;
71238;SDS011;61342;51.442;7.370;2023-06-22T02:39:59;7.40;;;6.22;;
71238;SDS011;61342;51.442;7.370;2023-06-22T02:41:00;6.88;;;6.18;;
71238;SDS011;61342;51.442;7.370;2023-06-22T02:42:02;7.07;;;5.97;;
71238;SDS011;61342;51.442;7.370;2023-06-22T02:43:05;7.90;;;5.60;;
71238;SDS011;61342;51.442;7.370;2023-06-22T02:44:12;10.10;;;5.97;;
71238;SDS011;61342;51.442;7.370;2023-06-22T02:45:21;6.53;;;5.72;;
71238;SDS011;61342;51.442;7.370;2023-06-22T02:46:32;6.68;;;5.97;;
71238;SDS011;61342;51.442;7.370;2023-06-22T02:47:47;9.32;;;6.53;;
71238;SDS011;61342;51.442;7.370;2023-06-22T02:48:52;6.35;;;5.75;;
71238;SDS011;61342;51.442;7.370;2023-06-22T02:50:04;6.95;;;5.97;;
71238;SDS011;61342;51.442;7.370;2023-06-22T02:51:17;7.35;;;5.90;;
71238;SDS011;61342;51.442;7.370;2023-06-22T02:52:21;9.85;;;5.72;;
71238;SDS011;61342;51.442;7.370;2023-06-22T02:53:22;6.65;;;5.85;;
71238;SDS011;61342;51.442;7.370;2023-06-22T02:54:26;6.57;;;5.72;;
71238;SDS011;61342;51.442;7.370;2023-06-22T02:55:45;9.18;;;6.05;;
71238;SDS011;61342;51.442;7.370;2023-06-22T02:56:49;6.50;;;5.75;;
71238;SDS011;61342;51.442;7.370;2023-06-22T02:59:21;8.00;;;5.70;;
71238;SDS011;61342;51.442;7.370;2023-06-22T03:00:28;6.88;;;5.60;;
71238;SDS011;61342;51.442;7.370;2023-06-22T03:01:42;12.43;;;6.20;;
71238;SDS011;61342;51.442;7.370;2023-06-22T03:02:46;8.52;;;6.07;;
71238;SDS011;61342;51.442;7.370;2023-06-22T03:04:03;8.65;;;6.15;;
71238;SDS011;61342;51.442;7.370;2023-06-22T03:05:12;10.32;;;6.07;;
71238;SDS011;61342;51.442;7.370;2023-06-22T03:06:20;6.95;;;5.55;;
71238;SDS011;61342;51.442;7.370;2023-06-22T03:07:31;7.03;;;5.75;;
71238;SDS011;61342;51.442;7.370;2023-06-22T03:08:32;9.02;;;5.38;;
71238;SDS011;61342;51.442;7.370;2023-06-22T03:09:35;9.65;;;6.50;;
71238;SDS011;61342;51.442;7.370;2023-06-22T03:10:39;8.43;;;6.47;;
71238;SDS011;61342;51.442;7.370;2023-06-22T03:11:41;6.75;;;6.03;;
71238;SDS011;61342;51.442;7.370;2023-06-22T03:12:54;7.85;;;6.47;;
71238;SDS011;61342;51.442;7.370;2023-06-22T03:14:17;6.70;;;5.97;;
71238;SDS011;61342;51.442;7.370;2023-06-22T03:15:18;9.30;;;6.20;;
71238;SDS011;61342;51.442;7.370;2023-06-22T03:16:31;8.25;;;5.65;;
71238;SDS011;61342;51.442;7.370;2023-06-22T03:17:33;8.02;;;6.30;;
71238;SDS011;61342;51.442;7.370;2023-06-22T03:18:35;6.55;;;5.85;;
71238;SDS011;61342;51.442;7.370;2023-06-22T03:19:52;8.70;;;6.40;;
71238;SDS011;61342;51.442;7.370;2023-06-22T03:21:16;9.98;;;6.75;;
71238;SDS011;61342;51.442;7.370;2023-06-22T03:22:18;10.10;;;6.70;;
71238;SDS011;61342;51.442;7.370;2023-06-22T03:23:33;9.85;;;6.47;;
71238;SDS011;61342;51.442;7.370;2023-06-22T03:24:34;9.38;;;6.55;;
71238;SDS011;61342;51.442;7.370;2023-06-22T03:25:45;8.55;;;6.22;;
71238;SDS011;61342;51.442;7.370;2023-06-22T03:26:46;13.98;;;6.90;;
71238;SDS011;61342;51.442;7.370;2023-06-22T03:27:47;7.15;;;6.28;;
71238;SDS011;61342;51.442;7.370;2023-06-22T03:28:51;9.32;;;6.50;;
71238;SDS011;61342;51.442;7.370;2023-06-22T03:30:12;7.78;;;6.13;;
71238;SDS011;61342;51.442;7.370;2023-06-22T03:31:15;9.30;;;6.45;;
71238;SDS011;61342;51.442;7.370;2023-06-22T03:32:16;8.82;;;6.03;;
71238;SDS011;61342;51.442;7.370;2023-06-22T03:33:21;10.90;;;6.13;;
71238;SDS011;61342;51.442;7.370;2023-06-22T03:34:27;6.38;;;5.75;;
71238;SDS011;61342;51.442;7.370;2023-06-22T03:35:33;7.18;;;5.93;;
71238;SDS011;61342;51.442;7.370;2023-06-22T03:38:00;7.97;;;5.55;;
71238;SDS011;61342;51.442;7.370;2023-06-22T03:39:01;7.72;;;6.28;;
71238;SDS011;61342;51.442;7.370;2023-06-22T03:40:02;7.47;;;5.82;;
71238;SDS011;61342;51.442;7.370;2023-06-22T03:41:05;7.70;;;6.05;;
71238;SDS011;61342;51.442;7.370;2023-06-22T03:44:59;7.43;;;6.00;;
71238;SDS011;61342;51.442;7.370;2023-06-22T03:46:07;7.93;;;6.53;;
71238;SDS011;61342;51.442;7.370;2023-06-22T03:47:11;8.88;;;6.70;;
71238;SDS011;61342;51.442;7.370;2023-06-22T03:49:53;8.68;;;6.63;;
71238;SDS011;61342;51.442;7.370;2023-06-22T03:50:59;7.85;;;6.40;;
71238;SDS011;61342;51.442;7.370;2023-06-22T03:52:29;9.82;;;7.05;;
71238;SDS011;61342;51.442;7.370;2023-06-22T03:53:38;7.65;;;6.15;;
71238;SDS011;61342;51.442;7.370;2023-06-22T03:54:47;8.30;;;6.50;;
71238;SDS011;61342;51.442;7.370;2023-06-22T03:55:49;11.02;;;7.28;;
71238;SDS011;61342;51.442;7.370;2023-06-22T03:56:59;10.25;;;6.45;;
71238;SDS011;61342;51.442;7.370;2023-06-22T03:59:32;7.53;;;6.72;;
71238;SDS011;61342;51.442;7.370;2023-06-22T04:00:34;9.60;;;7.55;;
71238;SDS011;61342;51.442;7.370;2023-06-22T04:01:36;11.05;;;7.05;;
71238;SDS011;61342;51.442;7.370;2023-06-22T04:02:37;12.02;;;6.55;;
71238;SDS011;61342;51.442;7.370;2023-06-22T04:03:38;9.98;;;7.40;;
71238;SDS011;61342;51.442;7.370;2023-06-22T04:04:39;10.05;;;6.55;;
71238;SDS011;61342;51.442;7.370;2023-06-22T04:05:40;9.90;;;6.40;;
71238;SDS011;61342;51.442;7.370;2023-06-22T04:06:41;11.77;;;7.32;;
71238;SDS011;61342;51.442;7.370;2023-06-22T04:07:42;12.35;;;7.50;;
71238;SDS011;61342;51.442;7.370;2023-06-22T04:08:44;11.05;;;8.18;;
71238;SDS011;61342;51.442;7.370;2023-06-22T04:09:53;9.93;;;7.47;;
71238;SDS011;61342;51.442;7.370;2023-06-22T04:11:19;11.05;;;7.82;;
71238;SDS011;61342;51.442;7.370;2023-06-22T04:12:20;10.15;;;7.50;;
71238;SDS011;61342;51.442;7.370;2023-06-22T04:13:20;14.52;;;11.48;;
71238;SDS011;61342;51.442;7.370;2023-06-22T04:14:24;13.32;;;9.98;;
71238;SDS011;61342;51.442;7.370;2023-06-22T04:15:25;18.85;;;12.30;;
71238;SDS011;61342;51.442;7.370;2023-06-22T04:21:31;11.30;;;7.97;;
71238;SDS011;61342;51.442;7.370;2023-06-22T04:22:34;11.30;;;8.23;;
71238;SDS011;61342;51.442;7.370;2023-06-22T04:23:37;10.57;;;7.95;;
71238;SDS011;61342;51.442;7.370;2023-06-22T04:24:38;10.70;;;8.02;;
71238;SDS011;61342;51.442;7.370;2023-06-22T04:25:41;10.10;;;8.27;;
71238;SDS011;61342;51.442;7.370;2023-06-22T04:26:41;12.30;;;8.60;;
71238;SDS011;61342;51.442;7.370;2023-06-22T04:27:47;10.60;;;8.48;;
71238;SDS011;61342;51.442;7.370;2023-06-22T04:29:12;10.35;;;8.93;;
71238;SDS011;61342;51.442;7.370;2023-06-22T04:30:12;12.32;;;8.43;;
71238;SDS011;61342;51.442;7.370;2023-06-22T04:31:15;11.48;;;8.63;;
71238;SDS011;61342;51.442;7.370;2023-06-22T04:32:15;10.40;;;8.02;;
71238;SDS011;61342;51.442;7.370;2023-06-22T04:33:19;12.27;;;8.30;;
71238;SDS011;61342;51.442;7.370;2023-06-22T04:34:22;11.45;;;8.27;;
71238;SDS011;61342;51.442;7.370;2023-06-22T04:35:28;12.77;;;8.00;;
71238;SDS011;61342;51.442;7.370;2023-06-22T04:36:29;11.45;;;8.77;;
71238;SDS011;61342;51.442;7.370;2023-06-22T04:37:37;12.15;;;8.48;;
71238;SDS011;61342;51.442;7.370;2023-06-22T04:38:39;11.35;;;9.10;;
71238;SDS011;61342;51.442;7.370;2023-06-22T04:39:42;10.88;;;8.77;;
71238;SDS011;61342;51.442;7.370;2023-06-22T04:40:43;9.80;;;8.75;;
71238;SDS011;61342;51.442;7.370;2023-06-22T04:41:44;10.82;;;9.07;;
71238;SDS011;61342;51.442;7.370;2023-06-22T04:42:45;11.40;;;8.98;;
71238;SDS011;61342;51.442;7.370;2023-06-22T04:43:52;11.98;;;9.63;;
71238;SDS011;61342;51.442;7.370;2023-06-22T04:44:54;12.25;;;9.48;;
71238;SDS011;61342;51.442;7.370;2023-06-22T04:45:54;15.25;;;11.23;;
71238;SDS011;61342;51.442;7.370;2023-06-22T04:46:56;17.08;;;13.32;;
71238;SDS011;61342;51.442;7.370;2023-06-22T04:48:04;12.48;;;10.95;;
71238;SDS011;61342;51.442;7.370;2023-06-22T04:49:08;11.77;;;9.20;;
71238;SDS011;61342;51.442;7.370;2023-06-22T04:50:50;12.07;;;9.77;;
71238;SDS011;61342;51.442;7.370;2023-06-22T04:52:11;12.13;;;9.00;;
71238;SDS011;61342;51.442;7.370;2023-06-22T04:53:17;9.93;;;8.93;;
71238;SDS011;61342;51.442;7.370;2023-06-22T04:54:29;11.93;;;9.15;;
71238;SDS011;61342;51.442;7.370;2023-06-22T04:56:12;9.77;;;8.63;;
71238;SDS011;61342;51.442;7.370;2023-06-22T04:59:51;9.98;;;8.82;;
71238;SDS011;61342;51.442;7.370;2023-06-22T05:01:02;9.90;;;8.93;;
71238;SDS011;61342;51.442;7.370;2023-06-22T05:04:29;12.70;;;8.50;;
71238;SDS011;61342;51.442;7.370;2023-06-22T05:05:40;9.52;;;8.13;;
71238;SDS011;61342;51.442;7.370;2023-06-22T05:08:52;9.07;;;7.97;;
71238;SDS011;61342;51.442;7.370;2023-06-22T05:09:59;13.35;;;7.95;;
71238;SDS011;61342;51.442;7.370;2023-06-22T05:13:29;9.05;;;8.02;;
71238;SDS011;61342;51.442;7.370;2023-06-22T05:15:01;10.10;;;8.25;;
71238;SDS011;61342;51.442;7.370;2023-06-22T05:16:42;10.68;;;8.75;;
71238;SDS011;61342;51.442;7.370;2023-06-22T05:17:57;8.73;;;7.80;;
71238;SDS011;61342;51.442;7.370;2023-06-22T05:20:30;9.68;;;8.13;;
71238;SDS011;61342;51.442;7.370;2023-06-22T05:23:25;12.20;;;7.53;;
71238;SDS011;61342;51.442;7.370;2023-06-22T05:24:26;10.20;;;8.90;;
71238;SDS011;61342;51.442;7.370;2023-06-22T05:25:28;11.90;;;9.60;;
71238;SDS011;61342;51.442;7.370;2023-06-22T05:26:30;20.75;;;15.60;;
71238;SDS011;61342;51.442;7.370;2023-06-22T05:30:09;10.85;;;8.23;;
71238;SDS011;61342;51.442;7.370;2023-06-22T05:31:20;14.02;;;8.32;;
71238;SDS011;61342;51.442;7.370;2023-06-22T05:32:21;11.63;;;8.57;;
71238;SDS011;61342;51.442;7.370;2023-06-22T05:33:26;9.23;;;8.23;;
71238;SDS011;61342;51.442;7.370;2023-06-22T05:34:51;9.65;;;8.65;;
71238;SDS011;61342;51.442;7.370;2023-06-22T05:36:10;8.65;;;7.53;;
71238;SDS011;61342;51.442;7.370;2023-06-22T05:37:34;10.43;;;7.75;;
71238;SDS011;61342;51.442;7.370;2023-06-22T05:38:45;11.00;;;7.82;;
71238;SDS011;61342;51.442;7.370;2023-06-22T05:40:00;9.75;;;7.60;;
71238;SDS011;61342;51.442;7.370;2023-06-22T05:41:04;11.38;;;8.13;;
71238;SDS011;61342;51.442;7.370;2023-06-22T05:42:10;8.82;;;8.02;;
71238;SDS011;61342;51.442;7.370;2023-06-22T05:43:31;11.05;;;8.05;;
71238;SDS011;61342;51.442;7.370;2023-06-22T05:44:58;8.27;;;7.47;;
71238;SDS011;61342;51.442;7.370;2023-06-22T05:49:34;11.68;;;7.72;;
71238;SDS011;61342;51.442;7.370;2023-06-22T05:50:37;8.07;;;7.28;;
71238;SDS011;61342;51.442;7.370;2023-06-22T05:56:09;11.10;;;8.80;;
71238;SDS011;61342;51.442;7.370;2023-06-22T05:57:30;8.93;;;7.72;;
71238;SDS011;61342;51.442;7.370;2023-06-22T05:58:58;11.40;;;7.15;;
71238;SDS011;61342;51.442;7.370;2023-06-22T06:01:46;10.73;;;7.63;;
71238;SDS011;61342;51.442;7.370;2023-06-22T06:04:32;10.10;;;7.90;;
71238;SDS011;61342;51.442;7.370;2023-06-22T06:05:33;12.27;;;8.68;;
71238;SDS011;61342;51.442;7.370;2023-06-22T06:06:43;10.27;;;7.97;;
71238;SDS011;61342;51.442;7.370;2023-06-22T06:07:44;11.32;;;8.48;;
71238;SDS011;61342;51.442;7.370;2023-06-22T06:14:36;9.80;;;8.80;;
71238;SDS011;61342;51.442;7.370;2023-06-22T06:39:53;10.48;;;9.40;;
71238;SDS011;61342;51.442;7.370;2023-06-22T06:43:07;12.82;;;9.60;;
71238;SDS011;61342;51.442;7.370;2023-06-22T06:44:18;14.02;;;9.90;;
71238;SDS011;61342;51.442;7.370;2023-06-22T06:45:40;10.85;;;9.63;;
71238;SDS011;61342;51.442;7.370;2023-06-22T06:46:46;10.85;;;9.75;;
71238;SDS011;61342;51.442;7.370;2023-06-22T06:48:13;15.05;;;9.05;;
71238;SDS011;61342;51.442;7.370;2023-06-22T06:49:20;15.13;;;9.50;;
71238;SDS011;61342;51.442;7.370;2023-06-22T06:50:46;13.93;;;9.75;;
71238;SDS011;61342;51.442;7.370;2023-06-22T06:51:54;12.70;;;9.77;;
71238;SDS011;61342;51.442;7.370;2023-06-22T06:52:57;11.98;;;10.05;;
71238;SDS011;61342;51.442;7.370;2023-06-22T06:53:59;11.80;;;9.98;;
71238;SDS011;61342;51.442;7.370;2023-06-22T06:55:15;12.27;;;9.50;;
71238;SDS011;61342;51.442;7.370;2023-06-22T06:56:18;11.68;;;10.30;;
71238;SDS011;61342;51.442;7.370;2023-06-22T06:57:23;11.32;;;10.23;;
71238;SDS011;61342;51.442;7.370;2023-06-22T06:58:28;13.30;;;9.63;;
71238;SDS011;61342;51.442;7.370;2023-06-22T06:59:29;11.30;;;10.07;;
71238;SDS011;61342;51.442;7.370;2023-06-22T07:00:33;13.43;;;9.20;;
71238;SDS011;61342;51.442;7.370;2023-06-22T07:01:33;10.45;;;9.43;;
71238;SDS011;61342;51.442;7.370;2023-06-22T07:02:40;11.32;;;9.40;;
71238;SDS011;61342;51.442;7.370;2023-06-22T07:04:40;18.58;;;15.68;;
71238;SDS011;61342;51.442;7.370;2023-06-22T07:07:15;12.57;;;11.23;;
71238;SDS011;61342;51.442;7.370;2023-06-22T07:10:37;11.50;;;9.60;;
71238;SDS011;61342;51.442;7.370;2023-06-22T07:12:22;13.73;;;10.07;;
71238;SDS011;61342;51.442;7.370;2023-06-22T07:15:44;10.77;;;9.65;;
71238;SDS011;61342;51.442;7.370;2023-06-22T07:17:05;13.77;;;10.27;;
71238;SDS011;61342;51.442;7.370;2023-06-22T07:22:05;10.55;;;9.48;;
71238;SDS011;61342;51.442;7.370;2023-06-22T07:23:16;13.32;;;9.43;;
71238;SDS011;61342;51.442;7.370;2023-06-22T07:26:33;11.57;;;10.35;;
71238;SDS011;61342;51.442;7.370;2023-06-22T07:29:27;10.75;;;9.68;;
71238;SDS011;61342;51.442;7.370;2023-06-22T07:34:17;13.13;;;10.73;;
71238;SDS011;61342;51.442;7.370;2023-06-22T07:35:17;10.93;;;9.82;;
71238;SDS011;61342;51.442;7.370;2023-06-22T07:48:53;13.65;;;11.15;;
71238;SDS011;61342;51.442;7.370;2023-06-22T08:08:38;13.55;;;10.95;;
71238;SDS011;61342;51.442;7.370;2023-06-22T08:18:42;13.20;;;11.80;;
71238;SDS011;61342;51.442;7.370;2023-06-22T08:21:52;13.85;;;11.77;;
71238;SDS011;61342;51.442;7.370;2023-06-22T08:25:17;14.73;;;12.20;;
71238;SDS011;61342;51.442;7.370;2023-06-22T08:26:28;14.15;;;12.70;;
71238;SDS011;61342;51.442;7.370;2023-06-22T08:27:36;16.67;;;12.07;;
71238;SDS011;61342;51.442;7.370;2023-06-22T08:28:36;14.07;;;12.68;;
71238;SDS011;61342;51.442;7.370;2023-06-22T08:29:37;22.08;;;13.52;;
71238;SDS011;61342;51.442;7.370;2023-06-22T08:30:37;14.18;;;12.70;;
71238;SDS011;61342;51.442;7.370;2023-06-22T08:31:38;14.68;;;13.27;;
71238;SDS011;61342;51.442;7.370;2023-06-22T08:32:38;14.38;;;12.95;;
71238;SDS011;61342;51.442;7.370;2023-06-22T08:33:39;13.77;;;12.27;;
71238;SDS011;61342;51.442;7.370;2023-06-22T08:34:43;14.57;;;12.48;;
71238;SDS011;61342;51.442;7.370;2023-06-22T08:35:43;14.30;;;12.30;;
71238;SDS011;61342;51.442;7.370;2023-06-22T08:36:44;14.48;;;12.23;;
71238;SDS011;61342;51.442;7.370;2023-06-22T08:37:57;13.80;;;12.43;;
71238;SDS011;61342;51.442;7.370;2023-06-22T08:38:59;13.73;;;12.32;;
71238;SDS011;61342;51.442;7.370;2023-06-22T08:40:03;15.02;;;11.38;;
71238;SDS011;61342;51.442;7.370;2023-06-22T08:41:05;15.00;;;12.27;;
71238;SDS011;61342;51.442;7.370;2023-06-22T08:42:06;16.88;;;12.63;;
71238;SDS011;61342;51.442;7.370;2023-06-22T08:43:10;15.75;;;13.52;;
71238;SDS011;61342;51.442;7.370;2023-06-22T08:48:36;15.10;;;11.80;;
71238;SDS011;61342;51.442;7.370;2023-06-22T08:49:58;13.10;;;11.18;;
71238;SDS011;61342;51.442;7.370;2023-06-22T08:51:16;14.65;;;11.68;;
71238;SDS011;61342;51.442;7.370;2023-06-22T08:52:56;12.90;;;10.63;;
71238;SDS011;61342;51.442;7.370;2023-06-22T08:54:12;12.85;;;10.07;;
71238;SDS011;61342;51.442;7.370;2023-06-22T08:55:16;12.98;;;11.18;;
71238;SDS011;61342;51.442;7.370;2023-06-22T08:56:25;12.18;;;10.80;;
71238;SDS011;61342;51.442;7.370;2023-06-22T08:57:28;11.60;;;10.48;;
71238;SDS011;61342;51.442;7.370;2023-06-22T08:58:34;11.95;;;10.85;;
71238;SDS011;61342;51.442;7.370;2023-06-22T08:59:40;13.98;;;10.10;;
71238;SDS011;61342;51.442;7.370;2023-06-22T09:01:00;14.18;;;10.95;;
71238;SDS011;61342;51.442;7.370;2023-06-22T09:02:17;14.70;;;11.05;;
71238;SDS011;61342;51.442;7.370;2023-06-22T09:03:34;12.48;;;10.35;;
71238;SDS011;61342;51.442;7.370;2023-06-22T09:05:00;12.82;;;10.52;;
71238;SDS011;61342;51.442;7.370;2023-06-22T09:06:17;11.52;;;9.27;;
71238;SDS011;61342;51.442;7.370;2023-06-22T09:07:18;10.70;;;9.70;;
71238;SDS011;61342;51.442;7.370;2023-06-22T09:08:22;11.27;;;10.18;;
71238;SDS011;61342;51.442;7.370;2023-06-22T09:09:31;10.45;;;9.45;;
71238;SDS011;61342;51.442;7.370;2023-06-22T09:10:48;11.90;;;10.27;;
71238;SDS011;61342;51.442;7.370;2023-06-22T09:12:16;10.57;;;9.50;;
71238;SDS011;61342;51.442;7.370;2023-06-22T09:13:33;10.98;;;9.88;;
71238;SDS011;61342;51.442;7.370;2023-06-22T09:15:00;9.88;;;8.88;;
71238;SDS011;61342;51.442;7.370;2023-06-22T09:16:16;14.05;;;8.40;;
71238;SDS011;61342;51.442;7.370;2023-06-22T09:17:19;9.70;;;8.70;;
71238;SDS011;61342;51.442;7.370;2023-06-22T09:18:20;10.48;;;9.43;;
71238;SDS011;61342;51.442;7.370;2023-06-22T09:19:21;12.10;;;9.18;;
71238;SDS011;61342;51.442;7.370;2023-06-22T09:20:27;10.00;;;8.60;;
71238;SDS011;61342;51.442;7.370;2023-06-22T09:21:43;14.25;;;9.00;;
71238;SDS011;61342;51.442;7.370;2023-06-22T09:24:28;9.60;;;8.60;;
71238;SDS011;61342;51.442;7.370;2023-06-22T09:25:42;10.25;;;9.00;;
71238;SDS011;61342;51.442;7.370;2023-06-22T09:26:48;10.68;;;8.63;;
71238;SDS011;61342;51.442;7.370;2023-06-22T09:28:21;11.63;;;9.07;;
71238;SDS011;61342;51.442;7.370;2023-06-22T09:29:26;10.68;;;8.15;;
71238;SDS011;61342;51.442;7.370;2023-06-22T09:30:47;8.85;;;7.97;;
71238;SDS011;61342;51.442;7.370;2023-06-22T09:33:51;9.60;;;8.60;;